Mountlake Terrace, WA (98043)

1:48 AM PDT on October 23, 2014 (GMT -0700)
Southwest Brier. Near King, Sno. Co. line | Change Station
CLOSE
Current Station
Personal Weather Station
Location: Brier, WA
Elevation: 320 ft
Nearby Weather Stations

Elev 320 ft 47.78 °N, 122.28 °W | Updated 53 seconds ago

Partly Cloudy
Partly Cloudy
52.2 °F
Feels Like 52.2 °F
N
1.0
Wind Variable Wind from ESE
Gusts 10.0 mph

Today
High -- | Low -- °F
--% Chance of Precip.
Yesterday
High -- | Low -- °F
Precip. -- in
7:40 AM 6:06 PM
Waning Crescent, 0% visible
Pressure 29.72 in
Visibility 10.0 miles
Clouds Scattered Clouds 1500 ft
Dew Point 50 °F
Humidity 92%
Rainfall -999.00 in
Snow Depth Not available.
UV 0 out of 12
Pollen .40 out of 12
Air Quality Not available.
Flu Activity Sporadic
SPECI KPAE 230840Z AUTO 17014KT 10SM SCT015 12/09 A2972 RMK AO2 T01170094

More Conditions Fewer Conditions

Pressure 29.72 in
Visibility 10.0 miles
Clouds Scattered Clouds 1500 ft
Dew Point 50 °F
Humidity 92%
Rainfall -999.00 in
Snow Depth Not available.
UV 0 out of 12
Pollen .40 out of 12
Air Quality Not available.
Flu Activity Sporadic
SPECI KPAE 230840Z AUTO 17014KT 10SM SCT015 12/09 A2972 RMK AO2 T01170094

More Conditions Fewer Conditions

10-Day Weather Forecast

Almanac

Astronomy

Oct. 23, 2014 Rise Set
Actual Time 7:40 AM PDT 6:06 PM PDT
Civil Twilight 7:08 AM PDT 6:37 PM PDT
Nautical Twilight 6:32 AM PDT 7:13 PM PDT
Astronomical Twilight 5:56 AM PDT 7:49 PM PDT
Moon 7:24 AM PDT 6:10 PM PDT
Length of Visible Light 11h 29m
Length of Day
10h 25m
Tomorrow will be 3m 15s shorter.
Waning Crescent, 0% of the Moon is Illuminated
Today
Waning Crescent
Oct 23
New
Oct 30
First Quarter
Nov 6
Full
Nov 14
Last Quarter

Today's Extremes

State Highs State Lows

Community

WunderPhotos

Upload Photos

1,764,197 photos uploaded!

Nearby

Air Quality

  Air Quality AQ Index Pollutant
Thursday Good
PM2.5
Friday Good
PM2.5
Saturday Good
PM2.5
Sunday Good
PM2.5
Monday Good
PM2.5

Snow Depth

Station Depth Elevation
Alpine Meadows 0 in 3500 ft
Skookum Creek 0 in 3920 ft
Dungeness 0 in 4100 ft
Mount Gardner 0 in 3000 ft
Waterhole 0 in 5000 ft

Earthquake Activity

City Distance Mag. Time & Date
No recent earthquake activity has been reported nearby.
Minimum magnitude displayed is 2.5.

Coastal Water Temperatures

Place Temperature
Port Townsend, WA 52.0 °F
Seattle, WA 55.0 °F
Friday Harbor, WA 51.1 °F
Tacoma, WA 55.0 °F

Nearby Weather Stations